createdAt,value
2017-07-31T00:02:26.955Z,4.43
2017-07-31T00:04:54.425Z,4.20
2017-07-31T00:07:21.891Z,4.57
2017-07-31T00:09:49.354Z,3.87
2017-07-31T00:12:16.815Z,4.10
2017-07-31T00:14:44.291Z,4.27
2017-07-31T00:17:12.514Z,4.30
2017-07-31T00:19:39.977Z,4.07
2017-07-31T00:22:07.449Z,4.63
2017-07-31T00:27:42.968Z,4.20
2017-07-31T00:30:11.225Z,3.63
2017-07-31T00:32:39.470Z,3.53
2017-07-31T00:35:06.926Z,3.53
2017-07-31T00:37:34.403Z,4.47
2017-07-31T00:40:01.875Z,4.10
2017-07-31T00:42:29.351Z,3.57
2017-07-31T00:44:57.583Z,4.47
2017-07-31T00:47:25.072Z,4.10
2017-07-31T00:49:52.534Z,4.17
2017-07-31T00:52:20.769Z,4.57
2017-07-31T00:54:48.255Z,3.20
2017-07-31T00:57:15.715Z,3.70
2017-07-31T00:59:43.173Z,3.90
2017-07-31T01:02:10.642Z,3.50
2017-07-31T01:04:38.867Z,4.00
2017-07-31T01:07:06.342Z,4.13
2017-07-31T01:09:33.806Z,4.10
2017-07-31T01:12:01.340Z,3.40
2017-07-31T01:14:28.783Z,4.00
2017-07-31T01:16:56.267Z,4.07
2017-07-31T01:19:24.451Z,4.00
2017-07-31T01:21:51.928Z,4.20
2017-07-31T01:24:19.387Z,3.80
2017-07-31T01:26:46.867Z,4.70
2017-07-31T01:29:14.323Z,4.17
2017-07-31T01:31:42.570Z,3.60
2017-07-31T01:34:10.402Z,3.60
2017-07-31T01:36:37.871Z,4.10
2017-07-31T01:39:05.336Z,3.47
2017-07-31T01:41:32.815Z,3.23
2017-07-31T01:44:00.275Z,3.77
2017-07-31T01:46:27.738Z,3.50
2017-07-31T01:48:55.195Z,4.17
2017-07-31T01:51:23.098Z,3.23
2017-07-31T01:53:50.560Z,3.83
2017-07-31T01:56:18.050Z,4.73
2017-07-31T01:58:45.513Z,3.77
2017-07-31T02:01:12.990Z,3.70
2017-07-31T02:03:40.476Z,3.30
2017-07-31T02:06:08.705Z,4.03
2017-07-31T02:08:36.163Z,3.73
2017-07-31T02:11:03.630Z,3.60
2017-07-31T02:13:31.326Z,3.40
2017-07-31T02:15:59.593Z,4.27
2017-07-31T02:18:27.055Z,4.13
2017-07-31T02:20:54.523Z,3.67
2017-07-31T02:23:22.758Z,3.73
2017-07-31T02:25:50.239Z,3.50
2017-07-31T02:28:17.695Z,3.80
2017-07-31T02:33:36.702Z,3.47
2017-07-31T02:36:04.173Z,3.47
2017-07-31T02:38:31.644Z,3.20
2017-07-31T02:40:59.119Z,3.60
2017-07-31T02:43:26.588Z,3.43
2017-07-31T02:45:54.062Z,4.10
2017-07-31T02:48:21.532Z,3.10
2017-07-31T02:50:49.007Z,3.47
2017-07-31T02:53:17.244Z,3.60
2017-07-31T02:55:44.724Z,3.80
2017-07-31T02:58:12.200Z,3.33
2017-07-31T03:00:40.436Z,3.73
2017-07-31T03:03:07.895Z,3.93
2017-07-31T03:05:35.371Z,4.57
2017-07-31T03:08:02.837Z,4.07
2017-07-31T03:10:30.319Z,4.50
2017-07-31T03:12:57.784Z,4.30
2017-07-31T03:15:25.243Z,4.20
2017-07-31T03:17:52.716Z,4.00
2017-07-31T03:20:20.185Z,3.90
2017-07-31T03:22:47.657Z,4.03
2017-07-31T03:25:15.123Z,3.87
2017-07-31T03:27:42.600Z,4.10
2017-07-31T03:30:10.091Z,4.20
2017-07-31T03:32:38.321Z,3.90
2017-07-31T03:35:05.784Z,4.80
2017-07-31T03:37:33.255Z,3.47
2017-07-31T03:40:01.483Z,3.40
2017-07-31T03:42:28.964Z,3.70
2017-07-31T03:44:56.419Z,3.63
2017-07-31T03:47:23.900Z,4.13
2017-07-31T03:49:51.364Z,4.07
2017-07-31T03:52:19.603Z,3.60
2017-07-31T03:54:47.092Z,3.83
2017-07-31T03:57:14.560Z,3.53
2017-07-31T03:59:42.796Z,3.40
2017-07-31T04:02:10.263Z,3.80
2017-07-31T04:04:37.731Z,4.20
2017-07-31T04:07:05.203Z,3.80
2017-07-31T04:09:32.672Z,3.80
2017-07-31T04:12:00.907Z,3.77
2017-07-31T04:14:31.518Z,3.53
2017-07-31T04:16:58.993Z,4.17
2017-07-31T04:19:26.460Z,4.73
2017-07-31T04:21:53.927Z,4.00
2017-07-31T04:24:21.403Z,4.37
2017-07-31T04:26:48.860Z,4.17
2017-07-31T04:29:16.332Z,4.00
2017-07-31T04:31:44.568Z,3.73
2017-07-31T04:34:12.051Z,3.57
2017-07-31T04:36:39.513Z,4.10
2017-07-31T04:39:07.766Z,4.60
2017-07-31T04:41:35.235Z,3.63
2017-07-31T04:44:02.719Z,5.47
2017-07-31T04:46:30.951Z,4.40
2017-07-31T04:48:58.420Z,4.57
2017-07-31T04:51:25.893Z,4.43
2017-07-31T04:53:53.361Z,4.37
2017-07-31T04:56:20.827Z,5.00
2017-07-31T04:58:49.073Z,4.30
2017-07-31T05:01:16.551Z,4.30
2017-07-31T05:03:49.674Z,4.27
2017-07-31T05:06:17.137Z,4.90
2017-07-31T05:08:44.624Z,4.80
2017-07-31T05:11:12.097Z,4.63
2017-07-31T05:13:39.563Z,5.40
2017-07-31T05:16:07.032Z,4.90
2017-07-31T05:18:35.272Z,4.30
2017-07-31T05:21:02.744Z,5.23
2017-07-31T05:23:30.217Z,6.33
2017-07-31T05:25:57.688Z,5.13
2017-07-31T05:28:25.939Z,5.40
2017-07-31T05:30:53.414Z,5.47
2017-07-31T05:33:20.889Z,5.80
2017-07-31T05:35:49.123Z,5.20
2017-07-31T05:38:16.590Z,5.90
2017-07-31T05:40:44.107Z,6.73
2017-07-31T05:43:11.572Z,5.80
2017-07-31T05:45:39.040Z,5.30
2017-07-31T05:48:06.500Z,6.93
2017-07-31T05:50:33.972Z,5.33
2017-07-31T05:53:01.431Z,5.50
2017-07-31T05:55:29.267Z,5.40
2017-07-31T05:57:56.745Z,5.60
2017-07-31T06:00:24.228Z,4.47
2017-07-31T06:02:51.704Z,5.23
2017-07-31T06:05:23.204Z,6.43
2017-07-31T06:07:56.464Z,5.23
2017-07-31T06:10:24.692Z,4.93
2017-07-31T06:12:52.177Z,4.13
2017-07-31T06:15:19.651Z,4.60
2017-07-31T06:17:47.119Z,4.27
2017-07-31T06:20:14.587Z,4.07
2017-07-31T06:22:42.068Z,4.27
2017-07-31T06:25:09.539Z,4.83
2017-07-31T06:27:37.000Z,3.90
2017-07-31T06:30:04.478Z,5.07
2017-07-31T06:32:31.936Z,3.43
2017-07-31T06:34:59.419Z,3.53
2017-07-31T06:37:27.664Z,3.47
2017-07-31T06:39:55.167Z,3.60
2017-07-31T06:42:22.641Z,3.90
2017-07-31T06:44:50.120Z,3.40
2017-07-31T06:47:17.596Z,3.60
2017-07-31T06:49:45.072Z,3.00
2017-07-31T06:52:12.535Z,3.40
2017-07-31T06:54:40.784Z,3.23
2017-07-31T06:57:08.252Z,3.77
2017-07-31T06:59:35.731Z,3.30
2017-07-31T07:02:03.972Z,3.20
2017-07-31T07:04:31.452Z,3.33
2017-07-31T07:06:58.916Z,3.70
2017-07-31T07:09:27.160Z,3.10
2017-07-31T07:11:54.645Z,3.20
2017-07-31T07:14:22.129Z,3.63
2017-07-31T07:16:50.369Z,3.40
2017-07-31T07:19:17.854Z,3.27
2017-07-31T07:21:46.088Z,3.07
2017-07-31T07:24:13.559Z,3.00
2017-07-31T07:26:41.040Z,2.83
2017-07-31T07:29:08.520Z,2.93
2017-07-31T07:31:36.048Z,2.80
2017-07-31T07:34:03.526Z,2.73
2017-07-31T07:36:31.766Z,2.37
2017-07-31T07:38:59.245Z,2.80
2017-07-31T07:41:26.712Z,3.30
2017-07-31T07:43:54.965Z,3.10
2017-07-31T07:49:13.835Z,3.07
2017-07-31T07:51:41.304Z,2.63
2017-07-31T07:54:08.771Z,2.20
2017-07-31T07:59:26.984Z,2.50
2017-07-31T08:01:54.470Z,2.77
2017-07-31T08:04:21.934Z,2.63
2017-07-31T08:06:49.412Z,2.30
2017-07-31T08:09:16.875Z,2.30
2017-07-31T10:41:53.463Z,2.60
2017-07-31T10:44:20.964Z,2.57
2017-07-31T10:46:48.440Z,2.03
2017-07-31T10:49:16.700Z,2.70
2017-07-31T10:51:44.165Z,2.53
2017-07-31T10:54:12.404Z,3.37
2017-07-31T10:56:39.863Z,1.73
2017-07-31T10:59:07.348Z,2.37
2017-07-31T11:01:34.819Z,2.20
2017-07-31T11:04:03.090Z,2.50
2017-07-31T11:06:31.334Z,2.40
2017-07-31T11:08:58.800Z,2.97
2017-07-31T11:11:26.273Z,2.40
2017-07-31T11:13:53.739Z,2.17
2017-07-31T11:16:21.964Z,2.87
2017-07-31T11:18:49.459Z,2.20
2017-07-31T11:21:16.912Z,2.23
2017-07-31T11:23:44.387Z,2.90
2017-07-31T11:26:12.652Z,2.23
2017-07-31T11:28:40.119Z,2.20
2017-07-31T11:31:07.579Z,2.60
2017-07-31T11:33:35.068Z,2.17
2017-07-31T11:36:02.532Z,2.60
2017-07-31T11:38:30.024Z,2.80
2017-07-31T11:40:57.487Z,3.07
2017-07-31T11:43:24.951Z,3.00
2017-07-31T11:45:52.435Z,2.40
2017-07-31T11:48:20.677Z,2.80
2017-07-31T11:50:48.152Z,2.87
2017-07-31T11:53:15.616Z,2.83
2017-07-31T11:55:43.095Z,2.73
2017-07-31T11:58:11.344Z,2.43
2017-07-31T12:00:38.835Z,2.63
2017-07-31T12:03:07.052Z,3.37
2017-07-31T12:05:34.529Z,3.10
2017-07-31T12:08:01.997Z,3.00
2017-07-31T12:10:29.471Z,2.63
2017-07-31T12:12:57.708Z,3.00
2017-07-31T12:15:25.180Z,2.77
2017-07-31T12:17:52.654Z,3.10
2017-07-31T12:20:20.118Z,3.00
2017-07-31T12:22:47.588Z,2.90
2017-07-31T12:25:15.059Z,3.53
2017-07-31T12:27:43.288Z,3.00
2017-07-31T12:30:10.755Z,3.23
2017-07-31T12:32:38.228Z,3.70
2017-07-31T12:35:05.701Z,3.37
2017-07-31T12:37:33.944Z,3.20
2017-07-31T12:40:01.408Z,3.27
2017-07-31T12:42:28.876Z,3.30
2017-07-31T12:44:57.119Z,3.40
2017-07-31T12:47:24.621Z,3.00
2017-07-31T12:49:52.084Z,3.50
2017-07-31T12:52:20.335Z,3.10
2017-07-31T12:54:47.798Z,3.60
2017-07-31T12:57:15.274Z,3.10
2017-07-31T12:59:43.512Z,3.20
2017-07-31T13:02:10.992Z,3.57
2017-07-31T13:04:38.459Z,3.50
2017-07-31T13:07:05.951Z,3.20
2017-07-31T13:09:33.429Z,3.20
2017-07-31T13:12:00.898Z,3.30
2017-07-31T13:14:28.372Z,4.17
2017-07-31T13:16:55.847Z,3.03
2017-07-31T13:19:23.311Z,3.50
2017-07-31T13:21:50.779Z,4.10
2017-07-31T13:24:19.011Z,3.60
2017-07-31T13:26:46.895Z,3.40
2017-07-31T13:29:14.367Z,3.70
2017-07-31T13:31:41.832Z,3.27
2017-07-31T13:34:09.309Z,3.97
2017-07-31T13:36:37.535Z,3.50
2017-07-31T13:39:05.002Z,3.03
2017-07-31T13:41:32.469Z,3.10
2017-07-31T13:43:59.943Z,3.67
2017-07-31T13:46:27.409Z,4.50
2017-07-31T13:48:55.650Z,3.77
2017-07-31T13:51:23.541Z,3.50
2017-07-31T13:53:51.011Z,3.67
2017-07-31T13:56:19.249Z,4.33
2017-07-31T13:58:46.720Z,3.00
2017-07-31T14:01:14.187Z,3.83
2017-07-31T14:03:41.664Z,3.47
2017-07-31T14:06:09.142Z,3.27
2017-07-31T14:08:36.614Z,3.40
2017-07-31T14:11:04.079Z,2.93
2017-07-31T14:13:31.544Z,3.23
2017-07-31T14:15:59.000Z,3.47
2017-07-31T14:18:26.959Z,3.40
2017-07-31T14:20:54.408Z,4.00
2017-07-31T14:23:21.883Z,4.03
2017-07-31T14:25:49.352Z,4.10
2017-07-31T14:28:16.849Z,3.87
2017-07-31T14:30:44.327Z,3.57
2017-07-31T14:33:12.555Z,4.00
2017-07-31T14:35:40.033Z,4.30
2017-07-31T14:38:07.497Z,4.07
2017-07-31T14:40:34.974Z,4.20
2017-07-31T14:43:03.212Z,3.60
2017-07-31T14:45:30.685Z,3.70
2017-07-31T14:47:58.140Z,4.70
2017-07-31T14:50:25.610Z,3.57
2017-07-31T14:52:53.851Z,4.07
2017-07-31T14:55:21.328Z,4.10
2017-07-31T14:57:48.792Z,3.73
2017-07-31T15:00:16.291Z,3.77
2017-07-31T15:02:43.763Z,3.70
2017-07-31T15:05:11.239Z,4.40
2017-07-31T15:07:38.704Z,3.50
2017-07-31T15:10:06.200Z,4.40
2017-07-31T15:12:34.435Z,4.30
2017-07-31T15:15:01.900Z,4.10
2017-07-31T15:17:29.393Z,5.23
2017-07-31T15:19:56.870Z,3.83
2017-07-31T15:22:24.911Z,4.30
2017-07-31T15:24:52.432Z,3.50
2017-07-31T15:27:19.904Z,4.33
2017-07-31T15:29:47.360Z,5.10
2017-07-31T15:32:14.849Z,4.30
2017-07-31T15:34:42.335Z,4.57
2017-07-31T15:37:16.333Z,4.57
2017-07-31T15:39:44.621Z,3.63
2017-07-31T15:42:12.101Z,3.83
2017-07-31T15:44:39.572Z,5.10
2017-07-31T15:47:07.048Z,4.47
2017-07-31T15:49:34.557Z,4.47
2017-07-31T15:52:02.028Z,4.23
2017-07-31T15:54:29.492Z,4.60
2017-07-31T15:56:56.963Z,4.10
2017-07-31T15:59:24.442Z,4.47
2017-07-31T16:01:51.918Z,4.57
2017-07-31T16:04:19.376Z,4.97
2017-07-31T16:06:46.864Z,4.20
2017-07-31T16:09:14.332Z,4.37
2017-07-31T16:11:41.795Z,4.97
2017-07-31T16:14:09.276Z,4.67
2017-07-31T16:16:36.740Z,4.83
2017-07-31T16:19:04.211Z,4.63
2017-07-31T16:21:31.667Z,4.00
2017-07-31T16:23:59.135Z,4.50
2017-07-31T16:26:26.608Z,4.87
2017-07-31T16:28:54.865Z,5.13
2017-07-31T16:31:22.673Z,4.80
2017-07-31T16:33:51.070Z,4.97
2017-07-31T16:36:18.532Z,4.80
2017-07-31T16:38:59.426Z,5.07
2017-07-31T16:41:47.279Z,4.70
2017-07-31T16:44:37.502Z,5.03
2017-07-31T16:47:07.519Z,4.90
2017-07-31T16:49:35.774Z,4.93
2017-07-31T16:52:03.244Z,4.80
2017-07-31T16:54:31.553Z,5.53
2017-07-31T16:56:59.030Z,5.07
2017-07-31T17:02:04.435Z,4.60
2017-07-31T17:04:31.928Z,5.10
2017-07-31T17:06:59.384Z,5.20
2017-07-31T17:09:26.863Z,5.07
2017-07-31T17:11:54.334Z,4.80
2017-07-31T17:14:21.832Z,4.83
2017-07-31T17:16:49.302Z,4.80
2017-07-31T17:19:17.538Z,5.60
2017-07-31T17:21:45.032Z,5.23
2017-07-31T17:24:14.506Z,4.60
2017-07-31T17:26:41.976Z,5.77
2017-07-31T17:29:09.558Z,5.17
2017-07-31T17:31:38.744Z,4.90
2017-07-31T17:34:06.355Z,5.23
2017-07-31T17:36:33.840Z,5.00
2017-07-31T17:39:01.340Z,4.47
2017-07-31T17:41:30.458Z,4.93
2017-07-31T17:43:57.950Z,5.30
2017-07-31T17:46:25.414Z,4.97
2017-07-31T17:48:52.948Z,5.63
2017-07-31T17:51:20.414Z,5.77
2017-07-31T17:53:48.668Z,5.10
2017-07-31T17:56:16.958Z,5.20
2017-07-31T17:58:44.450Z,4.70
2017-07-31T18:01:11.915Z,4.70
2017-07-31T18:03:39.386Z,4.63
2017-07-31T18:06:06.866Z,3.53
2017-07-31T18:08:34.335Z,4.27
2017-07-31T18:11:01.801Z,3.63
2017-07-31T18:13:29.276Z,3.13
2017-07-31T18:15:57.508Z,3.67
2017-07-31T18:18:24.984Z,3.30
2017-07-31T18:20:52.444Z,3.90
2017-07-31T18:23:19.912Z,3.53
2017-07-31T18:25:47.394Z,3.03
2017-07-31T18:28:15.628Z,3.33
2017-07-31T18:30:43.094Z,3.43
2017-07-31T18:33:11.334Z,3.03
2017-07-31T18:35:38.811Z,3.00
2017-07-31T18:38:06.572Z,3.10
2017-07-31T18:40:34.045Z,3.87
2017-07-31T18:43:01.515Z,3.63
2017-07-31T18:45:28.981Z,3.37
2017-07-31T18:47:56.456Z,3.90
2017-07-31T18:50:24.700Z,3.50
2017-07-31T18:52:52.186Z,4.20
2017-07-31T18:55:19.661Z,3.10
2017-07-31T18:57:47.894Z,3.73
2017-07-31T19:00:15.372Z,3.90
2017-07-31T19:02:42.840Z,3.53
2017-07-31T19:05:11.090Z,3.43
2017-07-31T19:07:38.838Z,3.43
2017-07-31T19:10:06.304Z,3.27
2017-07-31T19:12:33.779Z,4.17
2017-07-31T19:15:01.277Z,3.83
2017-07-31T19:17:29.514Z,3.70
2017-07-31T19:19:57.003Z,3.63
2017-07-31T19:22:24.483Z,4.30
2017-07-31T19:24:52.725Z,3.77
2017-07-31T19:27:20.194Z,3.90
2017-07-31T19:29:47.672Z,3.53
2017-07-31T19:32:15.926Z,3.80
2017-07-31T19:34:43.395Z,4.20
2017-07-31T19:37:11.639Z,3.30
2017-07-31T19:39:39.104Z,3.30
2017-07-31T19:42:06.576Z,4.27
2017-07-31T19:44:34.061Z,4.80
2017-07-31T19:47:02.299Z,3.53
2017-07-31T19:49:29.781Z,3.70
2017-07-31T19:51:57.341Z,3.80
2017-07-31T19:54:24.816Z,3.83
2017-07-31T19:56:56.006Z,3.97
2017-07-31T19:59:23.463Z,3.53
2017-07-31T20:01:50.936Z,3.70
2017-07-31T20:04:18.411Z,4.00
2017-07-31T20:06:45.889Z,3.87
2017-07-31T20:09:14.124Z,4.10
2017-07-31T20:11:41.596Z,4.60
2017-07-31T20:14:09.059Z,3.33
2017-07-31T20:16:38.311Z,3.90
2017-07-31T20:19:05.773Z,3.37
2017-07-31T20:21:33.257Z,3.30
2017-07-31T20:24:00.723Z,3.83
2017-07-31T20:26:28.189Z,3.47
2017-07-31T20:28:55.663Z,4.20
2017-07-31T20:31:24.688Z,3.10
2017-07-31T20:33:52.177Z,3.37
2017-07-31T20:36:19.669Z,4.10
2017-07-31T20:38:48.324Z,4.83
2017-07-31T20:41:15.891Z,3.60
2017-07-31T20:43:43.368Z,4.90
2017-07-31T20:46:10.832Z,3.73
2017-07-31T20:48:38.303Z,3.90
2017-07-31T20:51:06.586Z,4.80
2017-07-31T20:53:34.098Z,4.30
2017-07-31T20:56:01.640Z,4.30
2017-07-31T20:58:29.124Z,4.13
2017-07-31T21:00:56.592Z,4.60
2017-07-31T21:03:24.059Z,3.33
2017-07-31T21:05:51.538Z,3.67
2017-07-31T21:08:19.010Z,4.63
2017-07-31T21:10:46.493Z,4.13
2017-07-31T21:13:13.981Z,5.07
2017-07-31T21:15:41.464Z,4.53
2017-07-31T21:18:08.931Z,4.03
2017-07-31T21:20:36.398Z,4.60
2017-07-31T21:23:03.872Z,4.70
2017-07-31T21:25:31.340Z,4.70
2017-07-31T21:27:58.824Z,4.87
2017-07-31T21:30:26.288Z,5.20
2017-07-31T21:32:53.771Z,4.63
2017-07-31T21:35:21.234Z,4.80
2017-07-31T21:37:49.502Z,3.80
2017-07-31T21:40:17.726Z,4.70
2017-07-31T21:42:45.212Z,4.83
2017-07-31T21:45:12.681Z,4.27
2017-07-31T21:47:40.191Z,4.80
2017-07-31T21:50:07.658Z,4.67
2017-07-31T21:52:35.120Z,5.20
2017-07-31T21:55:02.600Z,4.97
2017-07-31T21:57:30.071Z,5.77
2017-07-31T21:59:57.562Z,5.23
2017-07-31T22:02:25.028Z,4.73
2017-07-31T22:04:52.496Z,5.70
2017-07-31T22:07:19.971Z,5.90
2017-07-31T22:09:54.004Z,5.73
2017-07-31T22:12:21.464Z,5.50
2017-07-31T22:14:48.944Z,4.80
2017-07-31T22:17:22.171Z,5.03
2017-07-31T22:19:49.634Z,4.80
2017-07-31T22:22:17.107Z,4.37
2017-07-31T22:24:44.593Z,5.07
2017-07-31T22:27:12.052Z,3.73
2017-07-31T22:29:39.526Z,4.80
2017-07-31T22:32:07.765Z,4.73
2017-07-31T22:34:35.257Z,5.33
2017-07-31T22:37:02.719Z,4.87
2017-07-31T22:39:30.198Z,5.20
2017-07-31T22:41:57.668Z,5.27
2017-07-31T22:44:25.141Z,4.30
2017-07-31T22:46:52.604Z,4.43
2017-07-31T22:49:20.106Z,5.90
2017-07-31T22:51:48.364Z,5.57
2017-07-31T22:54:15.832Z,6.40
2017-07-31T22:56:43.309Z,5.50
2017-07-31T22:59:11.539Z,5.80
2017-07-31T23:01:39.047Z,5.30
2017-07-31T23:04:06.513Z,5.40
2017-07-31T23:06:34.743Z,5.03
2017-07-31T23:09:02.220Z,5.60
2017-07-31T23:11:29.697Z,5.07
2017-07-31T23:13:57.944Z,4.60
2017-07-31T23:16:25.431Z,5.50
2017-07-31T23:18:53.674Z,5.23
2017-07-31T23:21:21.142Z,5.27
2017-07-31T23:23:48.602Z,7.30
2017-07-31T23:26:16.082Z,5.93
2017-07-31T23:28:44.330Z,5.80
2017-07-31T23:31:11.803Z,5.20
2017-07-31T23:33:39.948Z,6.73
2017-07-31T23:36:07.436Z,5.87
2017-07-31T23:38:34.908Z,7.30
2017-07-31T23:41:03.138Z,6.23
2017-07-31T23:43:30.633Z,6.67
2017-07-31T23:45:58.122Z,6.67
2017-07-31T23:48:25.595Z,5.57
2017-07-31T23:50:53.064Z,5.63
2017-07-31T23:53:20.543Z,6.20
2017-07-31T23:55:48.016Z,5.93
2017-07-31T23:58:15.499Z,6.30
